createdAt,value
2023-02-13T00:01:24.406Z,42.47
2023-02-13T00:03:56.905Z,42.79
2023-02-13T00:06:23.659Z,42.62
2023-02-13T00:08:50.354Z,42.63
2023-02-13T00:11:16.918Z,42.09
2023-02-13T00:13:43.781Z,42.47
2023-02-13T00:16:10.735Z,42.53
2023-02-13T00:18:37.865Z,42.47
2023-02-13T00:21:07.047Z,42.48
2023-02-13T00:23:43.810Z,42.36
2023-02-13T00:26:12.739Z,42.76
2023-02-13T00:28:57.500Z,42.48
2023-02-13T00:34:08.058Z,42.59
2023-02-13T00:36:37.411Z,42.74
2023-02-13T00:39:14.677Z,42.49
2023-02-13T00:41:55.995Z,42.72
2023-02-13T00:44:22.586Z,42.54
2023-02-13T00:46:49.236Z,42.39
2023-02-13T00:49:27.204Z,42.37
2023-02-13T00:51:59.899Z,42.36
2023-02-13T00:54:36.396Z,42.78
2023-02-13T00:57:12.695Z,42.52
2023-02-13T00:59:52.605Z,42.56
2023-02-13T01:02:47.887Z,42.57
2023-02-13T01:05:14.569Z,42.37
2023-02-13T01:07:43.089Z,42.03
2023-02-13T01:10:09.932Z,42.27
2023-02-13T01:12:39.054Z,42.42
2023-02-13T01:15:05.913Z,42.40
2023-02-13T01:17:32.547Z,42.55
2023-02-13T01:20:00.314Z,42.59
2023-02-13T01:22:26.923Z,42.40
2023-02-13T01:24:53.519Z,42.24
2023-02-13T01:27:33.600Z,42.33
2023-02-13T01:30:07.434Z,42.50
2023-02-13T01:32:34.061Z,42.39
2023-02-13T01:35:00.577Z,42.43
2023-02-13T01:37:34.495Z,42.48
2023-02-13T01:40:01.111Z,42.48
2023-02-13T01:42:29.741Z,42.45
2023-02-13T01:45:25.435Z,42.51
2023-02-13T01:48:10.268Z,42.36
2023-02-13T01:51:21.790Z,42.56
2023-02-13T01:54:20.168Z,42.40
2023-02-13T01:56:51.832Z,42.57
2023-02-13T01:59:32.425Z,42.54
2023-02-13T02:01:59.210Z,42.31
2023-02-13T02:04:28.641Z,42.38
2023-02-13T02:06:58.432Z,42.15
2023-02-13T02:09:34.403Z,42.55
2023-02-13T02:12:09.660Z,42.38
2023-02-13T02:14:41.047Z,42.36
2023-02-13T02:17:16.950Z,42.36
2023-02-13T02:19:55.795Z,42.07
2023-02-13T02:23:08.246Z,42.02
2023-02-13T02:26:16.419Z,42.17
2023-02-13T02:29:04.837Z,42.29
2023-02-13T02:31:56.219Z,42.12
2023-02-13T02:35:00.862Z,42.19
2023-02-13T02:37:48.951Z,42.22
2023-02-13T02:40:25.468Z,42.33
2023-02-13T02:43:16.795Z,42.30
2023-02-13T02:46:27.855Z,42.63
2023-02-13T02:49:50.350Z,42.60
2023-02-13T02:52:20.333Z,42.81
2023-02-13T02:55:19.951Z,42.80
2023-02-13T02:58:36.179Z,42.63
2023-02-13T03:01:23.801Z,42.72
2023-02-13T03:04:09.061Z,42.72
2023-02-13T03:06:43.534Z,42.62
2023-02-13T03:09:53.902Z,42.94
2023-02-13T03:12:43.962Z,42.59
2023-02-13T03:15:18.231Z,42.82
2023-02-13T03:18:06.955Z,42.43
2023-02-13T03:20:59.737Z,42.86
2023-02-13T03:23:35.388Z,42.86
2023-02-13T03:26:46.197Z,42.78
2023-02-13T03:29:42.972Z,43.03
2023-02-13T03:32:27.369Z,42.61
2023-02-13T03:35:32.174Z,43.07
2023-02-13T03:38:02.171Z,42.92
2023-02-13T03:44:34.415Z,42.87
2023-02-13T03:47:30.562Z,42.79
2023-02-13T03:53:11.439Z,43.03
2023-02-13T03:55:59.241Z,42.85
2023-02-13T03:58:53.592Z,42.95
2023-02-13T04:01:33.812Z,42.83
2023-02-13T04:06:56.612Z,42.68
2023-02-13T04:12:20.859Z,42.85
2023-02-13T04:14:57.904Z,42.38
2023-02-13T04:17:27.546Z,42.85
2023-02-13T04:19:58.556Z,42.74
2023-02-13T04:22:38.480Z,42.99
2023-02-13T04:25:10.443Z,42.71
2023-02-13T04:27:55.087Z,42.86
2023-02-13T04:30:26.165Z,42.72
2023-02-13T04:33:03.192Z,42.71
2023-02-13T04:35:38.748Z,42.53
2023-02-13T04:38:36.032Z,42.74
2023-02-13T04:41:02.991Z,42.75
2023-02-13T04:43:55.223Z,42.78
2023-02-13T04:46:24.039Z,42.57
2023-02-13T04:49:11.284Z,42.71
2023-02-13T04:51:55.068Z,42.89
2023-02-13T04:54:28.407Z,42.63
2023-02-13T04:57:00.524Z,42.74
2023-02-13T05:02:12.962Z,42.63
2023-02-13T05:04:42.065Z,41.93
2023-02-13T05:07:13.590Z,42.56
2023-02-13T05:09:43.314Z,42.58
2023-02-13T05:12:12.363Z,42.35
2023-02-13T05:14:42.492Z,42.21
2023-02-13T05:17:09.345Z,42.22
2023-02-13T05:19:38.135Z,42.23
2023-02-13T05:22:39.719Z,42.60
2023-02-13T05:25:06.390Z,42.47
2023-02-13T05:33:04.000Z,42.19
2023-02-13T05:35:30.841Z,42.39
2023-02-13T05:38:04.709Z,42.05
2023-02-13T05:40:31.719Z,42.47
2023-02-13T05:43:10.959Z,42.21
2023-02-13T05:45:37.822Z,42.48
2023-02-13T05:48:05.072Z,42.41
2023-02-13T05:50:46.316Z,42.19
2023-02-13T05:53:12.956Z,42.36
2023-02-13T05:55:44.463Z,42.16
2023-02-13T05:58:11.995Z,42.43
2023-02-13T06:00:38.674Z,42.51
2023-02-13T06:03:05.267Z,41.92
2023-02-13T06:05:31.800Z,42.42
2023-02-13T06:07:58.394Z,42.23
2023-02-13T06:10:24.896Z,40.58
2023-02-13T06:12:51.534Z,39.50
2023-02-13T06:15:18.160Z,38.28
2023-02-13T06:17:44.691Z,37.35
2023-02-13T06:20:11.524Z,37.38
2023-02-13T06:22:38.054Z,37.68
2023-02-13T06:25:04.927Z,38.51
2023-02-13T06:27:31.613Z,38.61
2023-02-13T06:29:58.224Z,39.08
2023-02-13T06:32:24.948Z,39.05
2023-02-13T06:34:51.528Z,39.43
2023-02-13T06:37:18.090Z,36.96
2023-02-13T06:39:45.397Z,36.20
2023-02-13T06:42:12.000Z,36.78
2023-02-13T06:44:38.643Z,37.77
2023-02-13T06:47:05.146Z,37.23
2023-02-13T06:49:32.696Z,38.30
2023-02-13T06:52:06.750Z,38.80
2023-02-13T06:57:15.706Z,39.14
2023-02-13T06:59:42.676Z,39.17
2023-02-13T07:02:11.182Z,39.32
2023-02-13T07:04:37.784Z,39.22
2023-02-13T08:33:28.134Z,39.25
2023-02-13T08:35:55.319Z,37.36
2023-02-13T08:38:22.117Z,37.01
2023-02-13T08:46:12.103Z,38.39
2023-02-13T08:48:38.727Z,38.73
2023-02-13T08:51:09.395Z,39.16
2023-02-13T08:53:36.277Z,39.14
2023-02-13T08:56:02.952Z,38.61
2023-02-13T08:58:29.741Z,38.66
2023-02-13T09:00:56.424Z,38.91
2023-02-13T09:03:23.077Z,39.22
2023-02-13T09:05:49.736Z,39.33
2023-02-13T09:08:17.904Z,39.69
2023-02-13T09:10:45.382Z,39.57
2023-02-13T09:13:12.115Z,39.68
2023-02-13T09:15:40.557Z,39.78
2023-02-13T09:18:07.735Z,39.37
2023-02-13T09:20:35.799Z,40.44
2023-02-13T09:23:02.712Z,39.62
2023-02-13T09:25:29.286Z,39.79
2023-02-13T09:27:55.818Z,39.93
2023-02-13T09:30:25.613Z,39.89
2023-02-13T09:32:53.089Z,39.86
2023-02-13T09:35:20.043Z,39.96
2023-02-13T09:37:46.887Z,39.85
2023-02-13T09:40:21.067Z,40.26
2023-02-13T09:42:47.623Z,40.48
2023-02-13T09:45:14.152Z,40.15
2023-02-13T09:47:42.080Z,40.22
2023-02-13T09:50:12.785Z,40.23
2023-02-13T09:52:39.578Z,40.39
2023-02-13T09:55:16.925Z,40.31
2023-02-13T09:57:47.519Z,40.20
2023-02-13T10:00:23.313Z,40.18
2023-02-13T10:03:01.296Z,40.25
2023-02-13T10:55:17.165Z,40.94
2023-02-13T10:58:08.238Z,40.92
2023-02-13T11:32:19.490Z,40.91
2023-02-13T11:34:46.299Z,40.89
2023-02-13T11:37:12.751Z,41.53
2023-02-13T11:39:41.194Z,41.16
2023-02-13T11:42:19.730Z,40.91
2023-02-13T11:44:50.704Z,41.00
2023-02-13T11:47:17.312Z,41.53
2023-02-13T11:49:47.433Z,41.14
2023-02-13T11:52:23.926Z,41.17
2023-02-13T11:55:03.353Z,41.13
2023-02-13T11:57:34.832Z,41.16
2023-02-13T12:00:20.663Z,41.27
2023-02-13T12:36:46.039Z,41.31
2023-02-13T12:39:21.476Z,41.26
2023-02-13T12:42:33.240Z,41.21
2023-02-13T12:45:05.580Z,41.41
2023-02-13T12:47:42.243Z,41.33
2023-02-13T12:50:23.916Z,41.16
2023-02-13T12:53:03.128Z,41.01
2023-02-13T12:55:29.601Z,41.33
2023-02-13T12:58:37.890Z,41.19
2023-02-13T13:01:08.988Z,41.18
2023-02-13T13:03:37.546Z,41.06
2023-02-13T13:06:40.278Z,41.31
2023-02-13T13:09:34.144Z,41.14
2023-02-13T13:12:36.032Z,41.12
2023-02-13T13:15:31.668Z,41.30
2023-02-13T13:18:12.766Z,41.22
2023-02-13T13:20:59.769Z,41.34
2023-02-13T13:23:34.870Z,41.44
2023-02-13T13:26:10.046Z,41.43
2023-02-13T13:28:41.867Z,41.19
2023-02-13T13:32:07.684Z,41.17
2023-02-13T14:11:41.319Z,40.12
2023-02-13T14:14:46.453Z,40.28
2023-02-13T14:17:37.892Z,40.52
2023-02-13T14:20:45.887Z,40.47
2023-02-13T14:23:27.715Z,40.73
2023-02-13T14:26:16.402Z,40.69
2023-02-13T14:28:51.940Z,40.75
2023-02-13T14:31:38.641Z,40.67
2023-02-13T14:34:32.442Z,41.17
2023-02-13T14:37:39.766Z,40.92
2023-02-13T14:40:27.021Z,41.41
2023-02-13T14:50:03.399Z,41.17
2023-02-13T14:52:33.310Z,41.20
2023-02-13T14:55:03.163Z,41.07
2023-02-13T14:57:34.573Z,41.21
2023-02-13T15:00:32.017Z,41.19
2023-02-13T15:03:04.564Z,41.10
2023-02-13T15:05:35.036Z,41.26
2023-02-13T15:08:15.600Z,41.22
2023-02-13T15:10:57.121Z,41.42
2023-02-13T15:13:31.865Z,41.35
2023-02-13T15:16:10.111Z,41.42
2023-02-13T15:18:42.737Z,41.29
2023-02-13T15:21:14.759Z,41.14
2023-02-13T15:23:59.329Z,41.57
2023-02-13T15:26:29.688Z,41.38
2023-02-13T15:29:03.726Z,41.53
2023-02-13T15:34:30.388Z,41.36
2023-02-13T15:36:57.079Z,41.55
2023-02-13T15:39:28.934Z,41.45
2023-02-13T15:41:58.257Z,41.59
2023-02-13T15:44:31.625Z,41.45
2023-02-13T15:47:04.258Z,41.65
2023-02-13T15:49:57.611Z,41.43
2023-02-13T15:52:30.365Z,41.56
2023-02-13T15:55:22.037Z,41.35
2023-02-13T15:57:48.745Z,41.57
2023-02-13T16:00:39.654Z,41.40
2023-02-13T16:03:10.724Z,41.41
2023-02-13T16:05:43.196Z,41.37
2023-02-13T16:08:33.315Z,41.50
2023-02-13T16:11:18.756Z,41.48
2023-02-13T16:13:58.526Z,41.40
2023-02-13T16:16:50.494Z,41.43
2023-02-13T16:19:52.412Z,41.41
2023-02-13T16:22:41.190Z,41.38
2023-02-13T16:25:21.883Z,41.63
2023-02-13T16:27:52.229Z,41.61
2023-02-13T16:30:51.977Z,41.54
2023-02-13T16:33:24.220Z,41.56
2023-02-13T16:35:55.395Z,41.69
2023-02-13T16:38:30.907Z,41.54
2023-02-13T16:41:28.540Z,41.71
2023-02-13T16:43:56.151Z,41.67
2023-02-13T16:46:24.950Z,41.53
2023-02-13T16:48:57.783Z,41.65
2023-02-13T16:51:47.340Z,41.82
2023-02-13T16:54:18.545Z,41.73
2023-02-13T16:56:54.331Z,42.08
2023-02-13T16:59:28.492Z,41.71
2023-02-13T17:02:17.644Z,41.48
2023-02-13T17:04:50.792Z,41.83
2023-02-13T17:07:21.318Z,41.72
2023-02-13T17:09:52.440Z,41.79
2023-02-13T17:12:19.210Z,41.54
2023-02-13T17:14:46.100Z,41.69
2023-02-13T17:17:17.676Z,41.70
2023-02-13T17:19:44.397Z,41.47
2023-02-13T17:22:18.405Z,40.47
2023-02-13T17:24:44.916Z,40.21
2023-02-13T17:27:11.686Z,40.40
2023-02-13T17:29:38.337Z,40.36
2023-02-13T17:32:05.092Z,40.52
2023-02-13T17:34:31.661Z,40.81
2023-02-13T17:36:58.324Z,40.72
2023-02-13T17:39:24.877Z,40.94
2023-02-13T17:41:51.415Z,41.26
2023-02-13T17:44:17.931Z,40.88
2023-02-13T17:46:44.424Z,41.21
2023-02-13T17:49:12.385Z,41.19
2023-02-13T17:51:39.143Z,41.01
2023-02-13T17:54:05.714Z,41.25
2023-02-13T17:56:32.394Z,41.10
2023-02-13T17:58:58.984Z,41.08
2023-02-13T18:01:25.600Z,41.25
2023-02-13T18:03:52.219Z,41.65
2023-02-13T18:06:18.806Z,41.55
2023-02-13T18:08:45.329Z,41.08
2023-02-13T18:11:12.137Z,41.53
2023-02-13T18:13:40.793Z,41.06
2023-02-13T18:16:08.524Z,41.27
2023-02-13T18:18:35.053Z,41.24
2023-02-13T18:21:01.844Z,41.31
2023-02-13T18:23:28.374Z,41.58
2023-02-13T18:26:06.811Z,42.17
2023-02-13T18:28:33.343Z,42.15
2023-02-13T18:31:00.402Z,41.93
2023-02-13T18:33:27.329Z,42.32
2023-02-13T18:36:00.071Z,42.31
2023-02-13T18:38:26.692Z,42.17
2023-02-13T18:40:53.256Z,42.19
2023-02-13T18:43:21.934Z,42.04
2023-02-13T18:45:48.591Z,43.03
2023-02-13T18:48:15.135Z,43.06
2023-02-13T18:50:44.774Z,43.03
2023-02-13T18:53:11.535Z,42.87
2023-02-13T18:55:38.259Z,42.91
2023-02-13T18:58:04.907Z,43.12
2023-02-13T19:00:31.659Z,43.67
2023-02-13T19:02:58.787Z,43.54
2023-02-13T19:05:25.572Z,43.48
2023-02-13T19:07:52.180Z,43.70
2023-02-13T19:10:18.869Z,43.61
2023-02-13T19:12:45.508Z,43.69
2023-02-13T19:15:12.113Z,44.31
2023-02-13T19:17:38.883Z,44.08
2023-02-13T19:20:06.150Z,43.97
2023-02-13T19:22:32.957Z,43.75
2023-02-13T19:24:59.592Z,42.96
2023-02-13T19:27:26.126Z,41.70
2023-02-13T19:29:52.675Z,41.10
2023-02-13T19:32:19.569Z,41.58
2023-02-13T19:34:46.967Z,41.85
2023-02-13T19:37:13.494Z,41.88
2023-02-13T19:39:40.146Z,41.98
2023-02-13T19:42:06.724Z,42.27
2023-02-13T19:44:33.266Z,41.84
2023-02-13T19:46:59.832Z,42.37
2023-02-13T19:49:26.378Z,42.87
2023-02-13T19:51:53.007Z,42.30
2023-02-13T19:54:19.634Z,42.83
2023-02-13T19:56:47.546Z,42.67
2023-02-13T19:59:14.201Z,42.51
2023-02-13T20:01:45.709Z,42.84
2023-02-13T20:04:12.531Z,42.65
2023-02-13T20:06:39.261Z,42.85
2023-02-13T20:09:08.848Z,42.99
2023-02-13T20:11:35.568Z,42.54
2023-02-13T20:14:04.035Z,43.07
2023-02-13T20:16:33.128Z,42.94
2023-02-13T20:19:05.947Z,42.91
2023-02-13T20:21:34.289Z,43.16
2023-02-13T20:24:03.106Z,43.10
2023-02-13T20:26:31.180Z,43.02
2023-02-13T20:29:02.894Z,43.18
2023-02-13T20:31:43.914Z,43.11
2023-02-13T20:34:10.985Z,43.49
2023-02-13T20:36:39.037Z,43.44
2023-02-13T20:39:08.756Z,43.24
2023-02-13T20:41:45.505Z,43.35
2023-02-13T20:44:26.230Z,43.26
2023-02-13T20:47:01.104Z,43.17
2023-02-13T20:49:30.315Z,43.25
2023-02-13T20:52:11.851Z,43.37
2023-02-13T20:54:44.271Z,43.44
2023-02-13T20:57:24.127Z,43.58
2023-02-13T20:59:53.770Z,43.29
2023-02-13T21:02:37.254Z,43.06
2023-02-13T21:05:11.507Z,42.99
2023-02-13T21:07:53.175Z,43.47
2023-02-13T21:10:21.829Z,43.20
2023-02-13T21:12:54.676Z,43.27
2023-02-13T21:15:36.566Z,43.33
2023-02-13T21:18:04.174Z,43.24
2023-02-13T21:20:35.289Z,43.34
2023-02-13T21:23:12.085Z,43.28
2023-02-13T21:26:11.919Z,43.39
2023-02-13T21:28:53.383Z,43.32
2023-02-13T21:31:23.856Z,43.45
2023-02-13T21:33:53.219Z,43.46
2023-02-13T21:36:21.804Z,43.31
2023-02-13T21:39:16.874Z,43.35
2023-02-13T21:41:46.152Z,43.50
2023-02-13T21:44:32.009Z,43.56
2023-02-13T21:47:07.186Z,43.35
2023-02-13T21:49:36.446Z,43.52
2023-02-13T21:52:06.309Z,43.34
2023-02-13T21:54:42.197Z,43.84
2023-02-13T21:57:12.933Z,43.42
2023-02-13T21:59:41.444Z,43.56
2023-02-13T22:02:28.599Z,43.40
2023-02-13T22:04:56.817Z,43.30
2023-02-13T22:07:33.227Z,43.47
2023-02-13T22:09:59.857Z,43.34
2023-02-13T22:12:43.093Z,43.41
2023-02-13T22:18:08.913Z,43.52
2023-02-13T22:20:35.864Z,43.61
2023-02-13T22:23:09.096Z,43.66
2023-02-13T22:25:43.654Z,43.47
2023-02-13T22:28:16.864Z,43.59
2023-02-13T22:30:45.515Z,43.54
2023-02-13T22:33:14.754Z,43.34
2023-02-13T22:35:50.167Z,43.73
2023-02-13T22:38:17.153Z,43.51
2023-02-13T22:40:50.933Z,43.63
2023-02-13T22:43:20.905Z,43.51
2023-02-13T22:45:53.722Z,43.72
2023-02-13T22:48:32.543Z,43.11
2023-02-13T22:51:18.427Z,43.26
2023-02-13T22:53:48.504Z,43.58
2023-02-13T22:56:37.275Z,43.66
2023-02-13T22:59:11.891Z,43.47
2023-02-13T23:01:43.783Z,43.58
2023-02-13T23:04:13.046Z,43.39
2023-02-13T23:06:46.030Z,43.54
2023-02-13T23:09:22.353Z,43.55
2023-02-13T23:12:11.187Z,43.55
2023-02-13T23:14:44.925Z,43.59
2023-02-13T23:17:35.956Z,43.58
2023-02-13T23:20:06.667Z,43.41
2023-02-13T23:22:35.885Z,43.28
2023-02-13T23:25:08.315Z,43.13
2023-02-13T23:27:38.184Z,43.48
2023-02-13T23:30:22.488Z,43.54
2023-02-13T23:32:51.186Z,43.44
2023-02-13T23:35:36.148Z,43.58
2023-02-13T23:38:14.552Z,43.42
2023-02-13T23:41:01.332Z,43.74
2023-02-13T23:43:35.636Z,43.58
2023-02-13T23:46:28.925Z,43.62
2023-02-13T23:49:05.569Z,43.72
2023-02-13T23:51:44.656Z,43.51
2023-02-13T23:54:30.626Z,43.50
2023-02-13T23:57:05.357Z,43.45
2023-02-13T23:59:32.306Z,43.56
